sensor_id;sensor_type;location;lat;lon;timestamp;pressure;altitude;pressure_sealevel;temperature;humidity
11808;BME280;5961;42.640;23.380;2023-09-30T00:00:34;94446.47;;;20.00;54.58
11808;BME280;5961;42.640;23.380;2023-09-30T00:03:02;94500.16;;;20.37;54.91
11808;BME280;5961;42.640;23.380;2023-09-30T00:05:30;94499.03;;;20.38;54.98
11808;BME280;5961;42.640;23.380;2023-09-30T00:07:57;94489.31;;;20.19;56.41
11808;BME280;5961;42.640;23.380;2023-09-30T00:10:24;94495.47;;;20.16;56.44
11808;BME280;5961;42.640;23.380;2023-09-30T00:12:50;94496.56;;;20.01;57.52
11808;BME280;5961;42.640;23.380;2023-09-30T00:15:17;94487.72;;;20.04;57.31
11808;BME280;5961;42.640;23.380;2023-09-30T00:17:44;94491.97;;;20.05;58.12
11808;BME280;5961;42.640;23.380;2023-09-30T00:20:11;94492.34;;;20.00;58.50
11808;BME280;5961;42.640;23.380;2023-09-30T00:22:41;94497.34;;;19.98;58.90
11808;BME280;5961;42.640;23.380;2023-09-30T00:25:09;94474.94;;;19.84;59.29
11808;BME280;5961;42.640;23.380;2023-09-30T00:27:36;94493.09;;;19.94;58.73
11808;BME280;5961;42.640;23.380;2023-09-30T00:30:04;94491.94;;;19.91;58.22
11808;BME280;5961;42.640;23.380;2023-09-30T00:32:31;94486.88;;;19.86;56.62
11808;BME280;5961;42.640;23.380;2023-09-30T00:34:59;94490.00;;;19.88;57.31
11808;BME280;5961;42.640;23.380;2023-09-30T00:37:27;94483.41;;;19.86;57.54
11808;BME280;5961;42.640;23.380;2023-09-30T00:39:55;94487.69;;;19.94;59.28
11808;BME280;5961;42.640;23.380;2023-09-30T00:42:22;94486.91;;;19.90;58.48
11808;BME280;5961;42.640;23.380;2023-09-30T00:44:50;94483.03;;;19.84;59.14
11808;BME280;5961;42.640;23.380;2023-09-30T00:47:16;94480.69;;;19.75;57.66
11808;BME280;5961;42.640;23.380;2023-09-30T00:49:45;94476.81;;;19.73;57.42
11808;BME280;5961;42.640;23.380;2023-09-30T00:52:12;94476.41;;;19.67;57.15
11808;BME280;5961;42.640;23.380;2023-09-30T00:54:40;94481.38;;;19.65;57.66
11808;BME280;5961;42.640;23.380;2023-09-30T00:57:09;94465.53;;;19.53;58.06
11808;BME280;5961;42.640;23.380;2023-09-30T00:59:37;94481.72;;;19.53;57.89
11808;BME280;5961;42.640;23.380;2023-09-30T01:02:04;94479.34;;;19.41;58.49
11808;BME280;5961;42.640;23.380;2023-09-30T01:04:32;94486.66;;;19.40;58.06
11808;BME280;5961;42.640;23.380;2023-09-30T01:06:59;94471.16;;;19.27;58.31
11808;BME280;5961;42.640;23.380;2023-09-30T01:09:26;94470.31;;;19.15;58.63
11808;BME280;5961;42.640;23.380;2023-09-30T01:11:54;94476.88;;;19.18;59.30
11808;BME280;5961;42.640;23.380;2023-09-30T01:14:26;94471.44;;;19.11;59.54
11808;BME280;5961;42.640;23.380;2023-09-30T01:16:54;94471.06;;;19.12;59.18
11808;BME280;5961;42.640;23.380;2023-09-30T01:19:21;94477.59;;;19.11;57.89
11808;BME280;5961;42.640;23.380;2023-09-30T01:21:51;94452.53;;;19.00;58.17
11808;BME280;5961;42.640;23.380;2023-09-30T01:24:20;94468.72;;;19.07;60.04
11808;BME280;5961;42.640;23.380;2023-09-30T01:26:47;94475.31;;;19.17;60.37
11808;BME280;5961;42.640;23.380;2023-09-30T01:29:14;94474.50;;;19.13;60.41
11808;BME280;5961;42.640;23.380;2023-09-30T01:31:40;94468.03;;;19.21;59.92
11808;BME280;5961;42.640;23.380;2023-09-30T01:34:07;94454.44;;;19.00;60.09
11808;BME280;5961;42.640;23.380;2023-09-30T01:36:36;94474.50;;;19.13;58.66
11808;BME280;5961;42.640;23.380;2023-09-30T01:39:04;94433.97;;;18.92;58.97
11808;BME280;5961;42.640;23.380;2023-09-30T01:41:32;94470.31;;;19.15;60.17
11808;BME280;5961;42.640;23.380;2023-09-30T01:43:59;94470.75;;;19.21;60.81
11808;BME280;5961;42.640;23.380;2023-09-30T01:46:26;94467.66;;;19.23;60.88
11808;BME280;5961;42.640;23.380;2023-09-30T01:48:53;94467.66;;;19.23;60.86
11808;BME280;5961;42.640;23.380;2023-09-30T01:51:20;94466.56;;;19.31;60.54
11808;BME280;5961;42.640;23.380;2023-09-30T01:53:47;94459.56;;;19.23;60.19
11808;BME280;5961;42.640;23.380;2023-09-30T01:56:15;94468.81;;;19.22;59.99
11808;BME280;5961;42.640;23.380;2023-09-30T01:58:42;94466.88;;;19.18;60.01
11808;BME280;5961;42.640;23.380;2023-09-30T02:01:09;94469.50;;;19.08;60.68
11808;BME280;5961;42.640;23.380;2023-09-30T02:03:36;94463.28;;;19.04;61.04
11808;BME280;5961;42.640;23.380;2023-09-30T02:06:03;94457.88;;;18.97;61.35
11808;BME280;5961;42.640;23.380;2023-09-30T02:08:30;94456.28;;;18.92;60.20
11808;BME280;5961;42.640;23.380;2023-09-30T02:10:57;94458.22;;;18.88;60.96
11808;BME280;5961;42.640;23.380;2023-09-30T02:13:25;94452.38;;;18.83;60.87
11808;BME280;5961;42.640;23.380;2023-09-30T02:15:52;94446.16;;;18.75;61.44
11808;BME280;5961;42.640;23.380;2023-09-30T02:18:20;94452.28;;;18.69;61.90
11808;BME280;5961;42.640;23.380;2023-09-30T02:20:49;94439.94;;;18.64;61.95
11808;BME280;5961;42.640;23.380;2023-09-30T02:23:16;94458.84;;;18.75;62.57
11808;BME280;5961;42.640;23.380;2023-09-30T02:25:42;94453.09;;;18.73;62.75
11808;BME280;5961;42.640;23.380;2023-09-30T02:28:10;94449.97;;;18.71;63.25
11808;BME280;5961;42.640;23.380;2023-09-30T02:30:38;94463.13;;;18.79;63.05
11808;BME280;5961;42.640;23.380;2023-09-30T02:33:05;94463.91;;;18.83;63.09
11808;BME280;5961;42.640;23.380;2023-09-30T02:35:32;94450.44;;;18.83;63.24
11808;BME280;5961;42.640;23.380;2023-09-30T02:37:59;94453.56;;;18.85;61.89
11808;BME280;5961;42.640;23.380;2023-09-30T02:40:28;94462.41;;;18.82;61.66
11808;BME280;5961;42.640;23.380;2023-09-30T02:42:54;94457.44;;;18.88;61.73
11808;BME280;5961;42.640;23.380;2023-09-30T02:45:21;94459.31;;;18.84;61.84
11808;BME280;5961;42.640;23.380;2023-09-30T02:47:49;94457.41;;;18.84;61.81
11808;BME280;5961;42.640;23.380;2023-09-30T02:50:16;94452.69;;;18.74;61.96
11808;BME280;5961;42.640;23.380;2023-09-30T02:52:43;94462.25;;;18.68;62.44
11808;BME280;5961;42.640;23.380;2023-09-30T02:55:11;94449.16;;;18.63;62.46
11808;BME280;5961;42.640;23.380;2023-09-30T02:57:38;94449.44;;;18.51;63.03
11808;BME280;5961;42.640;23.380;2023-09-30T03:00:06;94454.28;;;18.38;63.81
11808;BME280;5961;42.640;23.380;2023-09-30T03:02:40;94457.53;;;18.54;63.71
11808;BME280;5961;42.640;23.380;2023-09-30T03:05:09;94452.97;;;18.62;63.56
11808;BME280;5961;42.640;23.380;2023-09-30T03:07:35;94451.78;;;18.56;63.93
11808;BME280;5961;42.640;23.380;2023-09-30T03:10:04;94460.69;;;18.63;64.26
11808;BME280;5961;42.640;23.380;2023-09-30T03:12:31;94457.63;;;18.65;64.14
11808;BME280;5961;42.640;23.380;2023-09-30T03:14:59;94463.47;;;18.74;64.03
11808;BME280;5961;42.640;23.380;2023-09-30T03:17:29;94456.22;;;18.82;64.19
11808;BME280;5961;42.640;23.380;2023-09-30T03:19:57;94460.91;;;18.88;63.83
11808;BME280;5961;42.640;23.380;2023-09-30T03:22:25;94464.00;;;18.94;63.84
11808;BME280;5961;42.640;23.380;2023-09-30T03:24:52;94467.88;;;18.96;63.97
11808;BME280;5961;42.640;23.380;2023-09-30T03:27:19;94444.38;;;18.93;64.01
11808;BME280;5961;42.640;23.380;2023-09-30T03:29:46;94457.91;;;19.00;64.55
11808;BME280;5961;42.640;23.380;2023-09-30T03:32:13;94457.16;;;19.03;64.37
11808;BME280;5961;42.640;23.380;2023-09-30T03:34:40;94457.88;;;18.97;64.63
11808;BME280;5961;42.640;23.380;2023-09-30T03:37:10;94458.28;;;19.02;64.72
11808;BME280;5961;42.640;23.380;2023-09-30T03:39:38;94455.59;;;19.02;64.75
11808;BME280;5961;42.640;23.380;2023-09-30T03:42:06;94448.88;;;18.75;64.58
11808;BME280;5961;42.640;23.380;2023-09-30T03:44:36;94450.38;;;18.73;64.42
11808;BME280;5961;42.640;23.380;2023-09-30T03:47:04;94454.69;;;18.84;64.60
11808;BME280;5961;42.640;23.380;2023-09-30T03:49:31;94447.72;;;18.76;64.92
11808;BME280;5961;42.640;23.380;2023-09-30T03:51:58;94453.97;;;18.87;65.22
11808;BME280;5961;42.640;23.380;2023-09-30T03:54:26;94428.47;;;18.74;65.10
11808;BME280;5961;42.640;23.380;2023-09-30T03:56:54;94453.16;;;18.83;65.39
11808;BME280;5961;42.640;23.380;2023-09-30T03:59:21;94442.34;;;18.80;65.32
11808;BME280;5961;42.640;23.380;2023-09-30T04:01:48;94458.16;;;18.81;65.81
11808;BME280;5961;42.640;23.380;2023-09-30T04:04:15;94455.84;;;18.83;65.61
11808;BME280;5961;42.640;23.380;2023-09-30T04:06:42;94466.16;;;18.74;65.56
11808;BME280;5961;42.640;23.380;2023-09-30T04:09:09;94465.41;;;18.77;65.35
11808;BME280;5961;42.640;23.380;2023-09-30T04:11:36;94463.13;;;18.79;65.87
11808;BME280;5961;42.640;23.380;2023-09-30T04:14:06;94472.78;;;18.84;66.35
11808;BME280;5961;42.640;23.380;2023-09-30T04:16:33;94434.53;;;18.60;66.63
11808;BME280;5961;42.640;23.380;2023-09-30T04:19:00;94459.59;;;18.72;66.95
11808;BME280;5961;42.640;23.380;2023-09-30T04:21:27;94464.69;;;18.84;66.81
11808;BME280;5961;42.640;23.380;2023-09-30T04:23:55;94462.22;;;18.64;66.38
11808;BME280;5961;42.640;23.380;2023-09-30T04:26:23;94471.34;;;18.53;66.81
11808;BME280;5961;42.640;23.380;2023-09-30T04:28:50;94472.41;;;18.45;67.30
11808;BME280;5961;42.640;23.380;2023-09-30T04:31:19;94475.03;;;18.38;67.56
11808;BME280;5961;42.640;23.380;2023-09-30T04:33:48;94467.75;;;18.01;68.54
11808;BME280;5961;42.640;23.380;2023-09-30T04:36:16;94477.63;;;17.90;69.63
11808;BME280;5961;42.640;23.380;2023-09-30T04:38:43;94482.19;;;17.86;69.94
11808;BME280;5961;42.640;23.380;2023-09-30T04:41:10;94476.53;;;17.65;70.18
11808;BME280;5961;42.640;23.380;2023-09-30T04:43:37;94479.66;;;17.67;69.79
11808;BME280;5961;42.640;23.380;2023-09-30T04:46:05;94476.47;;;17.58;69.33
11808;BME280;5961;42.640;23.380;2023-09-30T04:48:34;94486.25;;;17.47;69.68
11808;BME280;5961;42.640;23.380;2023-09-30T04:51:01;94473.06;;;17.35;69.59
11808;BME280;5961;42.640;23.380;2023-09-30T04:53:30;94488.88;;;17.40;70.37
11808;BME280;5961;42.640;23.380;2023-09-30T04:55:57;94493.03;;;17.34;70.21
11808;BME280;5961;42.640;23.380;2023-09-30T04:58:24;94493.81;;;17.38;70.31
11808;BME280;5961;42.640;23.380;2023-09-30T05:00:51;94476.78;;;17.27;70.63
11808;BME280;5961;42.640;23.380;2023-09-30T05:03:17;94495.31;;;17.35;70.96
11808;BME280;5961;42.640;23.380;2023-09-30T05:05:46;94488.81;;;17.36;71.04
11808;BME280;5961;42.640;23.380;2023-09-30T05:08:13;94491.06;;;17.31;70.88
11808;BME280;5961;42.640;23.380;2023-09-30T05:10:41;94502.59;;;17.35;71.07
11808;BME280;5961;42.640;23.380;2023-09-30T05:13:07;94496.09;;;17.36;71.12
11808;BME280;5961;42.640;23.380;2023-09-30T05:15:34;94489.16;;;17.31;71.31
11808;BME280;5961;42.640;23.380;2023-09-30T05:18:01;94501.81;;;17.31;71.67
11808;BME280;5961;42.640;23.380;2023-09-30T05:20:30;94495.97;;;17.25;72.01
11808;BME280;5961;42.640;23.380;2023-09-30T05:22:58;94500.25;;;17.30;72.17
11808;BME280;5961;42.640;23.380;2023-09-30T05:25:25;94500.75;;;17.39;72.30
11808;BME280;5961;42.640;23.380;2023-09-30T05:27:53;94476.06;;;17.30;71.92
11808;BME280;5961;42.640;23.380;2023-09-30T05:30:20;94494.75;;;17.49;71.66
11808;BME280;5961;42.640;23.380;2023-09-30T05:32:47;94502.63;;;17.61;71.59
11808;BME280;5961;42.640;23.380;2023-09-30T05:35:14;94504.97;;;17.66;71.47
11808;BME280;5961;42.640;23.380;2023-09-30T05:37:42;94499.94;;;17.61;71.64
11808;BME280;5961;42.640;23.380;2023-09-30T05:40:12;94509.72;;;17.76;71.20
11808;BME280;5961;42.640;23.380;2023-09-30T05:42:47;94509.06;;;17.86;71.11
11808;BME280;5961;42.640;23.380;2023-09-30T05:45:15;94505.66;;;17.89;70.88
11808;BME280;5961;42.640;23.380;2023-09-30T05:47:42;94510.78;;;18.01;70.37
11808;BME280;5961;42.640;23.380;2023-09-30T05:50:10;94479.91;;;17.88;70.14
11808;BME280;5961;42.640;23.380;2023-09-30T05:52:40;94517.91;;;18.20;70.18
11808;BME280;5961;42.640;23.380;2023-09-30T05:55:07;94523.38;;;18.27;69.82
11808;BME280;5961;42.640;23.380;2023-09-30T05:57:36;94439.78;;;17.73;69.72
11808;BME280;5961;42.640;23.380;2023-09-30T06:00:04;94521.94;;;18.37;69.68
11808;BME280;5961;42.640;23.380;2023-09-30T06:02:36;94526.22;;;18.41;69.45
11808;BME280;5961;42.640;23.380;2023-09-30T06:05:04;94523.19;;;18.46;69.63
11808;BME280;5961;42.640;23.380;2023-09-30T06:07:31;94516.41;;;18.59;69.36
11808;BME280;5961;42.640;23.380;2023-09-30T06:09:59;94526.09;;;18.64;69.33
11808;BME280;5961;42.640;23.380;2023-09-30T06:12:28;94535.00;;;18.72;68.94
11808;BME280;5961;42.640;23.380;2023-09-30T06:14:56;94527.03;;;18.82;68.80
11808;BME280;5961;42.640;23.380;2023-09-30T06:17:24;94531.66;;;18.85;68.88
11808;BME280;5961;42.640;23.380;2023-09-30T06:19:51;94534.78;;;18.91;68.62
11808;BME280;5961;42.640;23.380;2023-09-30T06:22:18;94537.09;;;18.92;68.77
11808;BME280;5961;42.640;23.380;2023-09-30T06:24:45;94539.47;;;18.97;68.61
11808;BME280;5961;42.640;23.380;2023-09-30T06:27:11;94534.06;;;18.97;67.64
11808;BME280;5961;42.640;23.380;2023-09-30T06:29:39;94540.31;;;19.08;66.39
11808;BME280;5961;42.640;23.380;2023-09-30T06:32:09;94550.72;;;19.13;66.10
11808;BME280;5961;42.640;23.380;2023-09-30T06:34:36;94551.94;;;19.19;64.63
11808;BME280;5961;42.640;23.380;2023-09-30T06:37:03;94545.81;;;19.23;63.05
11808;BME280;5961;42.640;23.380;2023-09-30T06:39:29;94552.06;;;19.34;62.56
11808;BME280;5961;42.640;23.380;2023-09-30T06:41:56;94554.41;;;19.39;61.41
11808;BME280;5961;42.640;23.380;2023-09-30T06:44:23;94549.44;;;19.41;61.66
11808;BME280;5961;42.640;23.380;2023-09-30T06:46:51;94547.56;;;19.48;60.52
11808;BME280;5961;42.640;23.380;2023-09-30T06:49:21;94549.09;;;19.49;60.14
11808;BME280;5961;42.640;23.380;2023-09-30T06:51:48;94552.19;;;19.51;59.67
11808;BME280;5961;42.640;23.380;2023-09-30T06:54:15;94551.78;;;19.49;60.15
11808;BME280;5961;42.640;23.380;2023-09-30T06:56:42;94550.28;;;19.52;60.04
11808;BME280;5961;42.640;23.380;2023-09-30T06:59:09;94554.56;;;19.60;59.53
11808;BME280;5961;42.640;23.380;2023-09-30T07:01:36;94559.19;;;19.59;59.18
11808;BME280;5961;42.640;23.380;2023-09-30T07:04:03;94556.13;;;19.64;59.16
11808;BME280;5961;42.640;23.380;2023-09-30T07:06:31;94554.97;;;19.65;60.29
11808;BME280;5961;42.640;23.380;2023-09-30T07:08:58;94556.94;;;19.72;59.77
11808;BME280;5961;42.640;23.380;2023-09-30T07:11:28;94561.59;;;19.75;59.63
11808;BME280;5961;42.640;23.380;2023-09-30T07:13:56;94566.25;;;19.82;59.46
11808;BME280;5961;42.640;23.380;2023-09-30T07:16:23;94570.13;;;19.84;59.34
11808;BME280;5961;42.640;23.380;2023-09-30T07:18:50;94563.19;;;19.87;58.36
11808;BME280;5961;42.640;23.380;2023-09-30T07:21:16;94569.00;;;19.92;57.26
11808;BME280;5961;42.640;23.380;2023-09-30T07:23:45;94561.25;;;19.87;56.31
11808;BME280;5961;42.640;23.380;2023-09-30T07:26:13;94557.81;;;19.90;56.64
11808;BME280;5961;42.640;23.380;2023-09-30T07:28:40;94566.28;;;19.92;57.17
11808;BME280;5961;42.640;23.380;2023-09-30T07:31:07;94570.97;;;20.02;56.91
11808;BME280;5961;42.640;23.380;2023-09-30T07:33:34;94549.72;;;19.90;56.78
11808;BME280;5961;42.640;23.380;2023-09-30T07:36:01;94574.09;;;20.11;56.43
11808;BME280;5961;42.640;23.380;2023-09-30T07:38:28;94577.97;;;20.17;56.76
11808;BME280;5961;42.640;23.380;2023-09-30T07:40:56;94574.53;;;20.20;56.26
11808;BME280;5961;42.640;23.380;2023-09-30T07:43:23;94571.91;;;20.28;56.15
11808;BME280;5961;42.640;23.380;2023-09-30T07:45:50;94571.91;;;20.35;55.83
11808;BME280;5961;42.640;23.380;2023-09-30T07:48:17;94569.63;;;20.37;54.95
11808;BME280;5961;42.640;23.380;2023-09-30T07:50:44;94574.63;;;20.42;54.90
11808;BME280;5961;42.640;23.380;2023-09-30T07:53:12;94578.53;;;20.51;54.73
11808;BME280;5961;42.640;23.380;2023-09-30T07:55:39;94570.44;;;20.55;53.89
11808;BME280;5961;42.640;23.380;2023-09-30T07:58:07;94581.25;;;20.65;51.38
11808;BME280;5961;42.640;23.380;2023-09-30T08:00:34;94582.78;;;20.70;52.30
11808;BME280;5961;42.640;23.380;2023-09-30T08:03:01;94570.47;;;20.76;52.53
11808;BME280;5961;42.640;23.380;2023-09-30T08:05:28;94577.78;;;20.79;50.91
11808;BME280;5961;42.640;23.380;2023-09-30T08:07:55;94577.81;;;20.86;50.78
11808;BME280;5961;42.640;23.380;2023-09-30T08:10:22;94583.63;;;20.95;50.96
11808;BME280;5961;42.640;23.380;2023-09-30T08:12:49;94530.31;;;20.67;49.88
11808;BME280;5961;42.640;23.380;2023-09-30T08:15:17;94575.91;;;21.04;49.29
11808;BME280;5961;42.640;23.380;2023-09-30T08:17:44;94580.56;;;21.07;48.88
11808;BME280;5961;42.640;23.380;2023-09-30T08:20:11;94582.13;;;21.15;48.58
11808;BME280;5961;42.640;23.380;2023-09-30T08:22:39;94584.81;;;21.19;48.51
11808;BME280;5961;42.640;23.380;2023-09-30T08:25:07;94578.28;;;21.27;48.51
11808;BME280;5961;42.640;23.380;2023-09-30T08:27:35;94586.78;;;21.32;48.17
11808;BME280;5961;42.640;23.380;2023-09-30T08:30:03;94561.28;;;21.19;47.62
11808;BME280;5961;42.640;23.380;2023-09-30T08:32:35;94580.19;;;21.44;47.58
11808;BME280;5961;42.640;23.380;2023-09-30T08:35:02;94582.91;;;21.48;46.38
11808;BME280;5961;42.640;23.380;2023-09-30T08:37:29;94575.16;;;21.46;46.33
11808;BME280;5961;42.640;23.380;2023-09-30T08:39:56;94579.03;;;21.56;46.32
11808;BME280;5961;42.640;23.380;2023-09-30T08:42:23;94575.91;;;21.61;45.50
11808;BME280;5961;42.640;23.380;2023-09-30T08:44:52;94556.63;;;21.52;45.68
11808;BME280;5961;42.640;23.380;2023-09-30T08:47:20;94571.28;;;21.68;45.50
11808;BME280;5961;42.640;23.380;2023-09-30T08:49:50;94571.28;;;21.68;44.47
11808;BME280;5961;42.640;23.380;2023-09-30T08:52:22;94567.44;;;21.69;43.93
11808;BME280;5961;42.640;23.380;2023-09-30T08:54:49;94579.38;;;21.79;44.42
11808;BME280;5961;42.640;23.380;2023-09-30T08:57:18;94577.44;;;21.83;43.85
11808;BME280;5961;42.640;23.380;2023-09-30T08:59:46;94571.25;;;21.86;43.70
11808;BME280;5961;42.640;23.380;2023-09-30T09:02:15;94561.56;;;21.85;43.83
11808;BME280;5961;42.640;23.380;2023-09-30T09:04:42;94575.91;;;21.96;46.55
11808;BME280;5961;42.640;23.380;2023-09-30T09:07:10;94564.28;;;21.99;43.04
11808;BME280;5961;42.640;23.380;2023-09-30T09:09:37;94548.84;;;21.93;41.74
11808;BME280;5961;42.640;23.380;2023-09-30T09:12:06;94560.38;;;22.07;42.12
11808;BME280;5961;42.640;23.380;2023-09-30T09:14:37;94568.09;;;22.12;41.90
11808;BME280;5961;42.640;23.380;2023-09-30T09:17:06;94551.84;;;22.16;41.83
11808;BME280;5961;42.640;23.380;2023-09-30T09:19:33;94561.91;;;22.15;41.25
11808;BME280;5961;42.640;23.380;2023-09-30T09:22:01;94574.25;;;22.27;39.71
11808;BME280;5961;42.640;23.380;2023-09-30T09:24:32;94545.63;;;22.29;38.88
11808;BME280;5961;42.640;23.380;2023-09-30T09:27:06;94554.09;;;22.31;38.31
11808;BME280;5961;42.640;23.380;2023-09-30T09:29:34;94551.03;;;22.29;38.40
11808;BME280;5961;42.640;23.380;2023-09-30T09:32:12;94547.53;;;22.32;38.05
11808;BME280;5961;42.640;23.380;2023-09-30T09:34:40;94539.41;;;22.32;37.47
11808;BME280;5961;42.640;23.380;2023-09-30T09:37:16;94557.16;;;22.44;37.39
11808;BME280;5961;42.640;23.380;2023-09-30T09:39:51;94550.16;;;22.47;37.73
11808;BME280;5961;42.640;23.380;2023-09-30T09:42:29;94555.16;;;22.52;37.84
11808;BME280;5961;42.640;23.380;2023-09-30T09:44:57;94538.53;;;22.50;37.85
11808;BME280;5961;42.640;23.380;2023-09-30T09:47:24;94537.72;;;22.60;37.88
11808;BME280;5961;42.640;23.380;2023-09-30T09:49:52;94512.25;;;22.47;37.85
11808;BME280;5961;42.640;23.380;2023-09-30T09:52:21;94536.91;;;22.70;38.04
11808;BME280;5961;42.640;23.380;2023-09-30T09:54:48;94530.75;;;22.66;37.76
11808;BME280;5961;42.640;23.380;2023-09-30T09:57:18;94541.50;;;22.76;37.93
11808;BME280;5961;42.640;23.380;2023-09-30T09:59:46;94537.22;;;22.79;38.19
11808;BME280;5961;42.640;23.380;2023-09-30T10:02:14;94523.31;;;22.77;38.66
11808;BME280;5961;42.640;23.380;2023-09-30T10:04:42;94534.47;;;22.86;38.01
11808;BME280;5961;42.640;23.380;2023-09-30T10:07:14;94532.13;;;22.88;38.29
11808;BME280;5961;42.640;23.380;2023-09-30T10:09:46;94523.19;;;22.91;36.63
11808;BME280;5961;42.640;23.380;2023-09-30T10:12:15;94527.47;;;22.92;36.71
11808;BME280;5961;42.640;23.380;2023-09-30T10:14:43;94523.25;;;22.87;37.13
11808;BME280;5961;42.640;23.380;2023-09-30T10:17:11;94518.09;;;23.00;36.84
11808;BME280;5961;42.640;23.380;2023-09-30T10:20:05;94525.44;;;23.03;36.84
11808;BME280;5961;42.640;23.380;2023-09-30T10:22:33;94518.84;;;23.04;36.84
11808;BME280;5961;42.640;23.380;2023-09-30T10:25:00;94472.16;;;22.82;36.33
11808;BME280;5961;42.640;23.380;2023-09-30T10:27:35;94508.31;;;23.13;36.27
11808;BME280;5961;42.640;23.380;2023-09-30T10:30:11;94505.94;;;23.19;35.48
11808;BME280;5961;42.640;23.380;2023-09-30T10:33:14;94505.47;;;23.27;35.60
11808;BME280;5961;42.640;23.380;2023-09-30T10:35:46;94488.41;;;23.30;35.58
11808;BME280;5961;42.640;23.380;2023-09-30T10:38:39;94492.56;;;23.45;36.04
11808;BME280;5961;42.640;23.380;2023-09-30T10:41:07;94480.88;;;23.52;35.02
11808;BME280;5961;42.640;23.380;2023-09-30T10:43:36;94468.72;;;23.64;33.59
11808;BME280;5961;42.640;23.380;2023-09-30T10:46:31;94481.34;;;23.81;33.63
11808;BME280;5961;42.640;23.380;2023-09-30T10:49:29;94432.31;;;23.61;32.89
11808;BME280;5961;42.640;23.380;2023-09-30T10:51:58;94479.06;;;24.10;36.38
11808;BME280;5961;42.640;23.380;2023-09-30T10:54:27;94465.47;;;24.10;33.99
11808;BME280;5961;42.640;23.380;2023-09-30T10:56:55;94478.75;;;24.34;32.89
11808;BME280;5961;42.640;23.380;2023-09-30T10:59:25;94442.03;;;24.26;32.83
11808;BME280;5961;42.640;23.380;2023-09-30T11:01:53;94480.06;;;24.53;31.80
11808;BME280;5961;42.640;23.380;2023-09-30T11:04:20;94459.09;;;24.53;32.03
11808;BME280;5961;42.640;23.380;2023-09-30T11:06:48;94472.66;;;24.80;35.60
11808;BME280;5961;42.640;23.380;2023-09-30T11:09:16;94471.09;;;24.83;32.63
11808;BME280;5961;42.640;23.380;2023-09-30T11:11:46;94468.69;;;24.88;32.32
11808;BME280;5961;42.640;23.380;2023-09-30T11:14:19;94468.56;;;24.95;31.92
11808;BME280;5961;42.640;23.380;2023-09-30T11:16:46;94453.91;;;24.89;31.06
11808;BME280;5961;42.640;23.380;2023-09-30T11:19:15;94481.59;;;25.07;29.79
11808;BME280;5961;42.640;23.380;2023-09-30T11:21:42;94454.22;;;24.95;29.60
11808;BME280;5961;42.640;23.380;2023-09-30T11:24:10;94464.78;;;25.13;29.79
11808;BME280;5961;42.640;23.380;2023-09-30T11:26:38;94460.34;;;25.22;30.32
11808;BME280;5961;42.640;23.380;2023-09-30T11:29:08;94459.94;;;25.24;29.89
11808;BME280;5961;42.640;23.380;2023-09-30T11:31:39;94457.53;;;25.29;30.01
11808;BME280;5961;42.640;23.380;2023-09-30T11:34:08;94424.53;;;25.04;29.42
11808;BME280;5961;42.640;23.380;2023-09-30T11:36:37;94463.19;;;25.38;30.27
11808;BME280;5961;42.640;23.380;2023-09-30T11:39:05;94462.38;;;25.41;29.18
11808;BME280;5961;42.640;23.380;2023-09-30T11:41:35;94446.78;;;25.42;29.97
11808;BME280;5961;42.640;23.380;2023-09-30T11:44:04;94461.34;;;25.55;30.21
11808;BME280;5961;42.640;23.380;2023-09-30T11:46:47;94447.41;;;25.53;30.33
11808;BME280;5961;42.640;23.380;2023-09-30T11:49:24;94453.84;;;25.82;29.57
11808;BME280;5961;42.640;23.380;2023-09-30T11:51:54;94463.81;;;25.89;30.08
11808;BME280;5961;42.640;23.380;2023-09-30T11:54:21;94443.84;;;25.95;29.18
11808;BME280;5961;42.640;23.380;2023-09-30T11:56:48;94446.84;;;26.01;29.74
11808;BME280;5961;42.640;23.380;2023-09-30T11:59:16;94448.56;;;26.11;29.29
11808;BME280;5961;42.640;23.380;2023-09-30T12:01:45;94439.50;;;26.17;29.92
11808;BME280;5961;42.640;23.380;2023-09-30T12:04:14;94436.38;;;26.19;29.48
11808;BME280;5961;42.640;23.380;2023-09-30T12:06:42;94408.22;;;26.06;30.21
11808;BME280;5961;42.640;23.380;2023-09-30T12:09:11;94436.91;;;26.30;30.18
11808;BME280;5961;42.640;23.380;2023-09-30T12:11:40;94441.00;;;26.38;29.64
11808;BME280;5961;42.640;23.380;2023-09-30T12:14:10;94431.84;;;26.48;30.70
11808;BME280;5961;42.640;23.380;2023-09-30T12:16:37;94425.00;;;26.56;29.45
11808;BME280;5961;42.640;23.380;2023-09-30T12:19:04;94436.47;;;26.67;29.36
11808;BME280;5961;42.640;23.380;2023-09-30T12:21:32;94372.38;;;26.43;29.06
11808;BME280;5961;42.640;23.380;2023-09-30T12:23:59;94427.97;;;26.82;29.66
11808;BME280;5961;42.640;23.380;2023-09-30T12:26:28;94418.53;;;26.86;29.02
11808;BME280;5961;42.640;23.380;2023-09-30T12:28:56;94413.72;;;26.90;29.10
11808;BME280;5961;42.640;23.380;2023-09-30T12:31:23;94416.91;;;26.89;28.35
11808;BME280;5961;42.640;23.380;2023-09-30T12:33:49;94418.25;;;26.97;29.92
11808;BME280;5961;42.640;23.380;2023-09-30T12:36:17;94415.00;;;27.02;29.07
11808;BME280;5961;42.640;23.380;2023-09-30T12:38:44;94412.78;;;27.13;27.82
11808;BME280;5961;42.640;23.380;2023-09-30T12:41:13;94406.28;;;27.23;28.29
11808;BME280;5961;42.640;23.380;2023-09-30T12:43:42;94401.31;;;27.34;27.84
11808;BME280;5961;42.640;23.380;2023-09-30T12:46:09;94400.63;;;27.46;27.40
11808;BME280;5961;42.640;23.380;2023-09-30T12:48:38;94401.97;;;27.54;27.25
11808;BME280;5961;42.640;23.380;2023-09-30T12:51:05;94404.94;;;27.60;27.10
11808;BME280;5961;42.640;23.380;2023-09-30T12:53:35;94395.63;;;27.57;26.72
11808;BME280;5961;42.640;23.380;2023-09-30T12:56:02;94393.16;;;27.63;26.65
11808;BME280;5961;42.640;23.380;2023-09-30T12:58:29;94399.16;;;27.58;26.74
11808;BME280;5961;42.640;23.380;2023-09-30T13:00:57;94392.06;;;27.60;26.69
11808;BME280;5961;42.640;23.380;2023-09-30T13:03:24;94400.25;;;27.60;26.42
11808;BME280;5961;42.640;23.380;2023-09-30T13:05:51;94396.41;;;27.58;26.55